CYBQ

Tadoule Lake Airport

Tadoule Lake, Manitoba, Canada
METAR CYBQ 212300Z AUTO 12007KT 9SM CLR 19/06 A2996 RMK SLP155 DENSITY ALT 1500FT
Observed Flight Rules
Jun-21 @ 23:00 UTC (47 minutes ago) Visual Flight Rules
Wind Visibility Clouds
120° at 7 knots 9 miles
  • Clear skies
Temperatures Readings
Current 19°C / 66°F
Dewpoint 6°C / 43°F
Humidity 43%
Altimeter 29.96" Hg
Pressure 1015.5 hPa
Elevation 262
METAR CYBQ 212300Z AUTO 12007KT 9SM CLR 19/06 A2996 RMK SLP155 DENSITY ALT 1500FT
Observed Flight Rules
Jun-21 @ 23:00 UTC
(47 minutes ago)
VFR
Wind Visibility
120° at 7 knots 9 miles
Clouds
  • Clear skies
Temperature Dewpoint
19°C / 66°F 6°C / 43°F
Humidity Altimeter Pressure
43% 29.96" Hg 1015.5 hPa